createdAt,value
2023-06-30T00:00:13.749Z,2.22
2023-06-30T00:02:43.284Z,2.63
2023-06-30T00:05:12.112Z,1.58
2023-06-30T00:07:41.016Z,2.10
2023-06-30T00:10:11.719Z,1.70
2023-06-30T00:12:40.115Z,4.18
2023-06-30T00:15:08.748Z,1.83
2023-06-30T00:17:37.196Z,2.03
2023-06-30T00:20:07.195Z,2.20
2023-06-30T00:22:36.750Z,1.35
2023-06-30T00:25:05.275Z,2.42
2023-06-30T00:27:34.895Z,2.30
2023-06-30T00:30:07.085Z,1.40
2023-06-30T00:32:35.310Z,1.95
2023-06-30T00:35:04.606Z,1.85
2023-06-30T00:37:33.121Z,1.85
2023-06-30T00:40:01.915Z,1.00
2023-06-30T00:42:29.968Z,2.53
2023-06-30T00:45:01.262Z,1.45
2023-06-30T00:47:29.512Z,1.10
2023-06-30T00:49:57.625Z,1.88
2023-06-30T00:52:26.223Z,2.42
2023-06-30T00:54:54.310Z,1.40
2023-06-30T00:57:22.556Z,1.48
2023-06-30T00:59:50.746Z,1.65
2023-06-30T01:02:24.728Z,2.50
2023-06-30T01:04:59.887Z,1.92
2023-06-30T01:07:36.348Z,1.70
2023-06-30T01:10:09.003Z,1.95
2023-06-30T01:12:37.698Z,1.80
2023-06-30T01:15:08.459Z,1.70
2023-06-30T01:17:46.720Z,1.17
2023-06-30T01:20:17.164Z,2.08
2023-06-30T01:22:48.547Z,1.50
2023-06-30T01:25:22.485Z,1.45
2023-06-30T01:27:51.368Z,1.58
2023-06-30T01:30:20.660Z,2.42
2023-06-30T01:32:51.766Z,1.65
2023-06-30T01:35:20.038Z,2.22
2023-06-30T01:37:48.166Z,1.08
2023-06-30T01:40:16.859Z,1.30
2023-06-30T01:42:45.821Z,1.30
2023-06-30T01:45:17.690Z,1.48
2023-06-30T01:47:45.887Z,1.33
2023-06-30T01:50:16.772Z,1.92
2023-06-30T01:52:45.163Z,1.35
2023-06-30T01:55:13.173Z,1.45
2023-06-30T01:57:41.164Z,2.28
2023-06-30T02:00:10.178Z,1.35
2023-06-30T02:02:40.897Z,1.25
2023-06-30T02:05:10.710Z,1.02
2023-06-30T02:07:40.206Z,1.20
2023-06-30T02:10:10.133Z,1.50
2023-06-30T02:12:38.185Z,1.90
2023-06-30T02:15:07.455Z,1.60
2023-06-30T02:17:36.578Z,1.92
2023-06-30T02:20:07.012Z,1.55
2023-06-30T02:22:35.219Z,2.25
2023-06-30T02:25:05.136Z,2.38
2023-06-30T02:27:33.634Z,1.40
2023-06-30T02:30:06.194Z,1.30
2023-06-30T02:32:39.498Z,1.35
2023-06-30T02:35:08.878Z,1.00
2023-06-30T02:37:37.445Z,1.65
2023-06-30T02:40:09.560Z,1.30
2023-06-30T02:42:37.705Z,1.85
2023-06-30T02:45:07.511Z,1.60
2023-06-30T02:47:35.664Z,1.38
2023-06-30T02:50:03.842Z,1.30
2023-06-30T02:52:34.777Z,1.60
2023-06-30T02:55:03.996Z,1.15
2023-06-30T02:57:33.391Z,1.13
2023-06-30T03:00:02.380Z,0.93
2023-06-30T03:02:32.093Z,1.35
2023-06-30T03:05:00.412Z,1.60
2023-06-30T03:07:31.128Z,1.00
2023-06-30T03:09:59.482Z,1.35
2023-06-30T03:12:27.601Z,1.60
2023-06-30T03:14:58.878Z,0.90
2023-06-30T03:17:27.210Z,1.67
2023-06-30T03:19:56.550Z,0.85
2023-06-30T03:22:24.562Z,1.67
2023-06-30T03:24:58.519Z,1.30
2023-06-30T03:27:26.531Z,1.15
2023-06-30T03:29:56.062Z,1.30
2023-06-30T03:32:24.552Z,1.60
2023-06-30T03:34:53.170Z,1.20
2023-06-30T03:37:21.210Z,2.00
2023-06-30T03:39:50.330Z,2.65
2023-06-30T03:42:18.677Z,2.95
2023-06-30T03:44:46.792Z,1.17
2023-06-30T03:47:16.207Z,0.90
2023-06-30T03:49:44.321Z,1.20
2023-06-30T03:52:12.480Z,0.88
2023-06-30T03:54:42.307Z,1.90
2023-06-30T03:57:12.119Z,2.42
2023-06-30T03:59:40.149Z,2.45
2023-06-30T04:02:08.246Z,1.33
2023-06-30T04:04:37.740Z,1.00
2023-06-30T04:07:06.789Z,1.20
2023-06-30T04:09:34.968Z,1.20
2023-06-30T04:12:02.886Z,1.13
2023-06-30T04:14:31.113Z,1.20
2023-06-30T04:16:59.551Z,1.13
2023-06-30T04:19:27.637Z,1.27
2023-06-30T04:21:57.101Z,0.90
2023-06-30T04:24:25.265Z,1.10
2023-06-30T04:26:53.323Z,1.38
2023-06-30T04:29:21.440Z,1.38
2023-06-30T04:31:49.521Z,1.13
2023-06-30T04:34:17.677Z,1.50
2023-06-30T04:36:45.680Z,1.20
2023-06-30T04:39:15.133Z,2.08
2023-06-30T04:41:43.225Z,1.45
2023-06-30T04:44:11.284Z,1.02
2023-06-30T04:46:39.393Z,1.60
2023-06-30T04:49:07.533Z,1.73
2023-06-30T04:51:36.610Z,1.70
2023-06-30T04:54:04.671Z,1.55
2023-06-30T04:56:34.290Z,2.22
2023-06-30T04:59:02.350Z,1.15
2023-06-30T05:01:31.187Z,1.48
2023-06-30T05:03:59.463Z,1.00
2023-06-30T05:06:27.511Z,1.38
2023-06-30T05:08:55.483Z,1.27
2023-06-30T05:11:23.419Z,1.70
2023-06-30T05:13:52.790Z,1.10
2023-06-30T05:16:20.886Z,1.13
2023-06-30T05:18:49.017Z,1.00
2023-06-30T05:21:17.131Z,1.35
2023-06-30T05:23:45.273Z,2.03
2023-06-30T05:26:13.400Z,1.90
2023-06-30T05:28:45.038Z,1.42
2023-06-30T05:31:18.906Z,1.10
2023-06-30T05:33:46.901Z,1.52
2023-06-30T05:36:14.997Z,1.23
2023-06-30T05:38:43.236Z,1.83
2023-06-30T05:41:11.614Z,1.67
2023-06-30T05:43:41.377Z,1.38
2023-06-30T05:46:09.540Z,1.27
2023-06-30T05:48:38.971Z,1.40
2023-06-30T05:51:07.019Z,0.85
2023-06-30T05:53:38.017Z,2.33
2023-06-30T05:56:06.740Z,1.70
2023-06-30T05:58:35.527Z,2.15
2023-06-30T06:01:03.578Z,1.38
2023-06-30T06:03:32.152Z,1.70
2023-06-30T06:06:01.607Z,2.35
2023-06-30T06:08:29.658Z,1.20
2023-06-30T06:10:57.836Z,1.17
2023-06-30T06:13:35.664Z,1.42
2023-06-30T06:16:05.532Z,1.10
2023-06-30T06:18:34.157Z,1.27
2023-06-30T06:21:04.147Z,1.20
2023-06-30T06:23:32.445Z,2.60
2023-06-30T06:26:02.768Z,1.42
2023-06-30T06:28:30.921Z,1.65
2023-06-30T06:30:59.110Z,1.42
2023-06-30T06:33:27.204Z,1.15
2023-06-30T06:35:55.251Z,1.48
2023-06-30T06:38:24.652Z,1.52
2023-06-30T06:40:52.884Z,1.40
2023-06-30T06:43:25.422Z,1.40
2023-06-30T06:45:53.669Z,1.52
2023-06-30T06:48:24.102Z,1.45
2023-06-30T06:50:53.483Z,1.38
2023-06-30T06:53:22.974Z,1.67
2023-06-30T06:55:53.845Z,1.30
2023-06-30T06:58:22.305Z,1.95
2023-06-30T07:00:52.248Z,1.35
2023-06-30T07:03:21.226Z,1.25
2023-06-30T07:05:49.558Z,1.30
2023-06-30T07:08:19.292Z,1.30
2023-06-30T07:10:49.542Z,1.15
2023-06-30T07:13:20.796Z,1.40
2023-06-30T07:15:49.974Z,1.38
2023-06-30T07:18:20.578Z,1.65
2023-06-30T07:20:51.000Z,1.90
2023-06-30T07:23:19.299Z,1.25
2023-06-30T07:25:48.423Z,1.30
2023-06-30T07:28:17.135Z,1.80
2023-06-30T07:30:46.469Z,1.60
2023-06-30T07:33:14.619Z,0.90
2023-06-30T07:35:43.412Z,2.10
2023-06-30T07:38:11.930Z,1.55
2023-06-30T07:40:55.167Z,1.52
2023-06-30T07:43:24.558Z,1.73
2023-06-30T07:45:56.579Z,1.73
2023-06-30T07:48:24.754Z,1.17
2023-06-30T07:51:06.966Z,1.20
2023-06-30T07:53:36.550Z,1.27
2023-06-30T07:56:04.729Z,1.73
2023-06-30T07:58:33.877Z,2.00
2023-06-30T08:01:03.585Z,1.17
2023-06-30T08:03:33.113Z,1.55
2023-06-30T08:06:01.669Z,1.45
2023-06-30T08:08:31.785Z,1.45
2023-06-30T08:11:00.061Z,1.42
2023-06-30T08:13:28.617Z,1.15
2023-06-30T08:15:56.824Z,1.67
2023-06-30T08:18:33.352Z,1.30
2023-06-30T08:21:02.146Z,1.33
2023-06-30T08:23:30.400Z,1.50
2023-06-30T08:25:58.526Z,0.90
2023-06-30T08:28:26.713Z,1.67
2023-06-30T08:30:55.018Z,1.23
2023-06-30T08:33:39.799Z,1.10
2023-06-30T08:36:09.295Z,1.55
2023-06-30T08:38:37.438Z,1.42
2023-06-30T08:41:05.727Z,1.20
2023-06-30T08:43:34.409Z,1.27
2023-06-30T08:46:04.240Z,1.60
2023-06-30T08:48:33.940Z,1.90
2023-06-30T08:51:02.214Z,1.40
2023-06-30T08:53:32.280Z,1.88
2023-06-30T08:56:01.700Z,1.50
2023-06-30T08:58:30.532Z,1.08
2023-06-30T09:00:59.135Z,1.38
2023-06-30T09:03:27.903Z,1.45
2023-06-30T09:06:01.027Z,1.60
2023-06-30T09:08:36.273Z,1.10
2023-06-30T09:11:08.378Z,1.30
2023-06-30T09:13:40.759Z,1.10
2023-06-30T09:16:13.638Z,1.88
2023-06-30T09:18:48.103Z,1.17
2023-06-30T09:21:17.602Z,1.95
2023-06-30T09:23:45.633Z,1.35
2023-06-30T09:26:15.662Z,1.30
2023-06-30T09:28:49.117Z,1.20
2023-06-30T09:31:28.662Z,1.38
2023-06-30T09:34:09.358Z,1.60
2023-06-30T09:36:39.909Z,1.75
2023-06-30T09:39:09.256Z,1.00
2023-06-30T09:41:37.406Z,1.50
2023-06-30T09:44:06.286Z,2.30
2023-06-30T09:46:34.839Z,1.48
2023-06-30T09:49:05.614Z,1.73
2023-06-30T09:51:35.414Z,1.00
2023-06-30T09:54:11.370Z,1.00
2023-06-30T09:56:42.603Z,1.67
2023-06-30T09:59:10.787Z,0.88
2023-06-30T10:01:38.882Z,1.52
2023-06-30T10:04:07.061Z,1.52
2023-06-30T10:06:39.196Z,1.40
2023-06-30T10:09:17.330Z,1.20
2023-06-30T10:11:47.063Z,1.40
2023-06-30T10:14:16.815Z,1.50
2023-06-30T10:16:47.558Z,1.50
2023-06-30T10:19:17.090Z,1.77
2023-06-30T10:21:45.145Z,1.75
2023-06-30T10:24:15.390Z,1.23
2023-06-30T10:26:43.446Z,1.80
2023-06-30T10:29:11.721Z,1.67
2023-06-30T10:31:39.974Z,2.17
2023-06-30T10:34:08.204Z,2.05
2023-06-30T10:36:36.729Z,1.00
2023-06-30T10:39:05.395Z,1.40
2023-06-30T10:41:46.797Z,1.45
2023-06-30T10:44:16.221Z,1.42
2023-06-30T10:46:52.763Z,1.00
2023-06-30T10:49:24.544Z,1.85
2023-06-30T10:51:57.341Z,1.20
2023-06-30T10:54:27.245Z,2.00
2023-06-30T10:57:08.178Z,1.40
2023-06-30T10:59:40.558Z,1.35
2023-06-30T11:02:30.270Z,1.65
2023-06-30T11:05:26.709Z,1.30
2023-06-30T11:07:56.999Z,2.45
2023-06-30T11:10:32.382Z,1.48
2023-06-30T11:13:03.084Z,1.45
2023-06-30T11:15:40.133Z,1.35
2023-06-30T11:18:13.194Z,1.42
2023-06-30T11:20:59.880Z,1.15
2023-06-30T11:23:29.831Z,1.85
2023-06-30T11:25:59.289Z,1.30
2023-06-30T11:28:29.815Z,1.63
2023-06-30T11:31:02.376Z,1.13
2023-06-30T11:33:30.583Z,1.10
2023-06-30T11:36:00.470Z,1.60
2023-06-30T11:38:28.766Z,1.48
2023-06-30T11:41:01.209Z,1.35
2023-06-30T11:43:35.516Z,1.10
2023-06-30T11:46:03.565Z,1.50
2023-06-30T11:48:39.434Z,1.38
2023-06-30T11:51:07.792Z,1.13
2023-06-30T11:53:37.187Z,0.90
2023-06-30T11:56:05.803Z,1.42
2023-06-30T11:58:35.310Z,1.45
2023-06-30T12:01:05.195Z,1.58
2023-06-30T12:03:33.368Z,1.40
2023-06-30T12:06:05.377Z,1.25
2023-06-30T12:08:38.405Z,1.08
2023-06-30T12:11:07.957Z,1.15
2023-06-30T12:13:42.905Z,1.90
2023-06-30T12:16:10.990Z,1.40
2023-06-30T12:18:39.318Z,1.67
2023-06-30T12:21:11.911Z,1.77
2023-06-30T12:23:43.221Z,1.15
2023-06-30T12:26:12.221Z,1.80
2023-06-30T12:28:43.067Z,0.95
2023-06-30T12:31:11.180Z,1.65
2023-06-30T12:33:41.394Z,3.00
2023-06-30T12:36:09.737Z,1.70
2023-06-30T12:38:37.803Z,1.50
2023-06-30T12:41:05.933Z,1.60
2023-06-30T12:43:35.061Z,1.77
2023-06-30T12:46:04.694Z,1.55
2023-06-30T12:48:33.598Z,1.85
2023-06-30T12:51:01.817Z,1.70
2023-06-30T12:53:29.961Z,1.45
2023-06-30T12:55:58.165Z,1.90
2023-06-30T12:58:28.659Z,2.10
2023-06-30T13:01:01.083Z,1.25
2023-06-30T13:03:30.866Z,1.40
2023-06-30T13:05:58.984Z,1.77
2023-06-30T13:08:27.124Z,1.55
2023-06-30T13:10:56.759Z,1.85
2023-06-30T13:13:24.880Z,1.30
2023-06-30T13:15:54.099Z,1.80
2023-06-30T13:18:22.199Z,1.75
2023-06-30T13:20:54.553Z,2.15
2023-06-30T13:23:32.208Z,1.63
2023-06-30T13:26:05.410Z,2.47
2023-06-30T13:28:33.765Z,2.20
2023-06-30T13:31:07.054Z,1.40
2023-06-30T13:33:35.146Z,1.42
2023-06-30T13:36:05.002Z,1.58
2023-06-30T13:38:33.830Z,2.95
2023-06-30T13:41:02.005Z,2.35
2023-06-30T13:43:30.903Z,2.05
2023-06-30T13:46:00.905Z,1.98
2023-06-30T13:48:29.188Z,1.67
2023-06-30T13:50:57.189Z,1.60
2023-06-30T13:53:26.689Z,2.05
2023-06-30T13:55:54.761Z,2.65
2023-06-30T13:58:22.680Z,1.67
2023-06-30T14:00:50.896Z,1.45
2023-06-30T14:03:19.059Z,2.20
2023-06-30T14:05:50.493Z,2.00
2023-06-30T14:08:18.902Z,1.10
2023-06-30T14:10:48.373Z,1.20
2023-06-30T14:13:16.641Z,1.50
2023-06-30T14:15:44.926Z,1.45
2023-06-30T14:18:13.340Z,1.60
2023-06-30T14:20:41.488Z,1.70
2023-06-30T14:23:13.540Z,1.45
2023-06-30T14:25:41.624Z,1.70
2023-06-30T14:28:11.264Z,2.10
2023-06-30T14:30:39.318Z,1.65
2023-06-30T14:33:07.381Z,1.65
2023-06-30T14:35:38.027Z,2.15
2023-06-30T14:38:11.341Z,1.33
2023-06-30T14:40:40.068Z,2.63
2023-06-30T14:43:09.980Z,1.88
2023-06-30T14:45:38.096Z,1.40
2023-06-30T14:48:06.920Z,1.92
2023-06-30T14:50:37.235Z,1.40
2023-06-30T14:53:05.318Z,1.42
2023-06-30T14:55:35.577Z,1.33
2023-06-30T14:58:04.371Z,1.90
2023-06-30T15:00:34.840Z,1.30
2023-06-30T15:03:03.964Z,2.58
2023-06-30T15:05:33.129Z,1.75
2023-06-30T15:08:01.530Z,1.58
2023-06-30T15:10:29.518Z,1.30
2023-06-30T15:13:00.612Z,2.00
2023-06-30T15:15:33.472Z,1.95
2023-06-30T15:18:03.016Z,2.15
2023-06-30T15:20:32.310Z,2.55
2023-06-30T15:23:00.706Z,4.03
2023-06-30T15:25:29.909Z,2.08
2023-06-30T15:27:58.698Z,1.85
2023-06-30T15:30:26.898Z,2.05
2023-06-30T15:32:55.405Z,1.60
2023-06-30T15:35:26.541Z,1.40
2023-06-30T15:37:54.585Z,2.22
2023-06-30T15:40:22.614Z,3.08
2023-06-30T15:42:51.028Z,2.05
2023-06-30T15:45:19.128Z,1.33
2023-06-30T15:47:47.307Z,2.22
2023-06-30T15:50:18.404Z,1.98
2023-06-30T15:52:47.761Z,2.05
2023-06-30T15:55:17.535Z,1.77
2023-06-30T15:57:45.946Z,1.80
2023-06-30T16:00:17.331Z,2.25
2023-06-30T16:02:45.466Z,1.85
2023-06-30T16:05:13.597Z,1.88
2023-06-30T16:07:41.825Z,2.72
2023-06-30T16:10:14.786Z,3.22
2023-06-30T16:12:43.305Z,2.08
2023-06-30T16:15:14.155Z,1.60
2023-06-30T16:17:42.347Z,1.50
2023-06-30T16:20:11.274Z,1.50
2023-06-30T16:22:39.532Z,1.50
2023-06-30T16:25:08.968Z,2.38
2023-06-30T16:27:38.484Z,2.22
2023-06-30T16:30:24.092Z,2.05
2023-06-30T16:32:55.955Z,1.45
2023-06-30T16:35:25.596Z,1.45
2023-06-30T16:37:53.843Z,2.00
2023-06-30T16:40:23.695Z,1.88
2023-06-30T16:42:53.885Z,1.60
2023-06-30T16:45:22.587Z,2.13
2023-06-30T16:47:50.620Z,2.13
2023-06-30T16:50:19.015Z,1.45
2023-06-30T16:52:47.470Z,1.83
2023-06-30T16:55:15.556Z,2.17
2023-06-30T16:57:44.814Z,1.92
2023-06-30T17:00:15.907Z,2.15
2023-06-30T17:02:46.444Z,2.88
2023-06-30T17:05:17.474Z,1.33
2023-06-30T17:07:48.092Z,1.85
2023-06-30T17:10:18.649Z,1.60
2023-06-30T17:12:47.041Z,1.80
2023-06-30T17:15:19.256Z,1.42
2023-06-30T17:17:49.357Z,1.73
2023-06-30T17:20:22.035Z,2.10
2023-06-30T17:22:50.118Z,1.67
2023-06-30T17:25:24.672Z,1.70
2023-06-30T17:27:52.981Z,3.45
2023-06-30T17:30:22.638Z,2.20
2023-06-30T17:33:02.936Z,2.10
2023-06-30T17:35:37.345Z,1.60
2023-06-30T17:38:06.177Z,1.65
2023-06-30T17:40:35.942Z,2.30
2023-06-30T17:43:04.086Z,2.50
2023-06-30T17:45:49.969Z,2.63
2023-06-30T17:48:18.701Z,1.85
2023-06-30T17:50:48.563Z,2.08
2023-06-30T17:53:18.097Z,2.53
2023-06-30T17:55:51.441Z,2.63
2023-06-30T17:58:31.780Z,2.10
2023-06-30T18:01:06.183Z,2.20
2023-06-30T18:03:34.773Z,2.13
2023-06-30T18:06:03.340Z,3.00
2023-06-30T18:08:31.849Z,2.30
2023-06-30T18:11:09.021Z,2.22
2023-06-30T18:13:39.418Z,2.38
2023-06-30T18:16:33.679Z,2.65
2023-06-30T18:19:33.406Z,2.72
2023-06-30T18:22:11.208Z,3.35
2023-06-30T18:24:49.285Z,3.30
2023-06-30T18:27:21.215Z,3.90
2023-06-30T18:30:36.724Z,3.28
2023-06-30T18:33:06.634Z,3.75
2023-06-30T18:35:40.281Z,2.75
2023-06-30T18:38:14.239Z,3.90
2023-06-30T18:40:46.458Z,4.30
2023-06-30T18:43:20.061Z,4.50
2023-06-30T18:45:53.171Z,3.38
2023-06-30T18:48:30.548Z,3.80
2023-06-30T18:51:01.051Z,3.40
2023-06-30T18:53:29.901Z,3.78
2023-06-30T18:55:58.641Z,3.90
2023-06-30T18:58:27.273Z,3.40
2023-06-30T19:00:56.180Z,3.03
2023-06-30T19:03:26.182Z,4.53
2023-06-30T19:06:00.162Z,2.60
2023-06-30T19:08:28.784Z,3.80
2023-06-30T19:11:03.262Z,2.42
2023-06-30T19:13:31.736Z,2.90
2023-06-30T19:16:01.228Z,3.03
2023-06-30T19:18:31.863Z,3.15
2023-06-30T19:21:01.577Z,2.65
2023-06-30T19:23:31.018Z,2.80
2023-06-30T19:26:02.533Z,3.15
2023-06-30T19:28:30.799Z,1.67
2023-06-30T19:30:59.090Z,2.63
2023-06-30T19:33:29.868Z,2.97
2023-06-30T19:36:00.237Z,2.67
2023-06-30T19:38:29.350Z,2.55
2023-06-30T19:40:58.180Z,3.65
2023-06-30T19:43:26.222Z,3.00
2023-06-30T19:45:54.209Z,3.72
2023-06-30T19:48:22.629Z,3.63
2023-06-30T19:50:50.968Z,3.33
2023-06-30T19:53:22.538Z,3.75
2023-06-30T19:55:50.727Z,3.28
2023-06-30T19:58:18.842Z,4.40
2023-06-30T20:00:46.991Z,3.65
2023-06-30T20:03:18.328Z,4.05
2023-06-30T20:05:46.615Z,4.47
2023-06-30T20:08:14.848Z,3.15
2023-06-30T20:10:44.191Z,4.50
2023-06-30T20:13:12.289Z,3.83
2023-06-30T20:15:40.991Z,4.35
2023-06-30T20:18:09.026Z,2.70
2023-06-30T20:20:37.142Z,4.40
2023-06-30T20:23:05.132Z,3.63
2023-06-30T20:25:34.433Z,3.35
2023-06-30T20:28:05.096Z,2.40
2023-06-30T20:30:33.307Z,2.85
2023-06-30T20:33:01.354Z,4.28
2023-06-30T20:35:29.395Z,3.00
2023-06-30T20:37:57.496Z,4.78
2023-06-30T20:40:25.701Z,4.15
2023-06-30T20:42:53.673Z,3.28
2023-06-30T20:45:24.453Z,3.05
2023-06-30T20:47:53.612Z,2.90
2023-06-30T20:50:21.732Z,3.53
2023-06-30T20:52:50.302Z,2.20
2023-06-30T20:55:19.215Z,2.40
2023-06-30T20:57:47.138Z,2.20
2023-06-30T21:00:21.474Z,3.88
2023-06-30T21:02:51.046Z,2.60
2023-06-30T21:05:19.253Z,2.10
2023-06-30T21:07:47.307Z,2.33
2023-06-30T21:10:16.015Z,2.00
2023-06-30T21:12:44.115Z,2.63
2023-06-30T21:15:13.013Z,2.92
2023-06-30T21:17:41.101Z,2.67
2023-06-30T21:20:12.005Z,2.88
2023-06-30T21:22:40.081Z,3.03
2023-06-30T21:25:10.023Z,3.47
2023-06-30T21:27:38.371Z,2.58
2023-06-30T21:30:09.941Z,2.60
2023-06-30T21:32:40.423Z,2.75
2023-06-30T21:35:11.998Z,1.88
2023-06-30T21:37:40.142Z,2.33
2023-06-30T21:40:10.433Z,2.13
2023-06-30T21:42:38.553Z,1.75
2023-06-30T21:45:07.719Z,2.75
2023-06-30T21:47:35.798Z,1.65
2023-06-30T21:50:04.237Z,2.25
2023-06-30T21:52:33.690Z,2.47
2023-06-30T21:55:01.896Z,1.70
2023-06-30T21:57:29.970Z,1.85
2023-06-30T21:59:59.248Z,2.30
2023-06-30T22:02:27.352Z,3.00
2023-06-30T22:04:55.698Z,2.65
2023-06-30T22:07:24.249Z,2.08
2023-06-30T22:09:53.718Z,2.95
2023-06-30T22:12:21.702Z,1.75
2023-06-30T22:14:49.838Z,2.72
2023-06-30T22:17:17.908Z,2.38
2023-06-30T22:19:46.032Z,1.92
2023-06-30T22:22:14.121Z,2.10
2023-06-30T22:24:45.482Z,1.48
2023-06-30T22:27:14.852Z,2.10
2023-06-30T22:29:42.917Z,1.92
2023-06-30T22:32:14.398Z,2.20
2023-06-30T22:34:42.432Z,1.52
2023-06-30T22:37:10.783Z,1.52
2023-06-30T22:39:38.838Z,2.78
2023-06-30T22:42:07.547Z,1.92
2023-06-30T22:44:36.946Z,2.13
2023-06-30T22:47:05.374Z,2.33
2023-06-30T22:49:33.485Z,2.13
2023-06-30T22:52:01.539Z,2.08
2023-06-30T22:54:29.694Z,2.13
2023-06-30T22:56:59.034Z,1.95
2023-06-30T22:59:27.632Z,1.75
2023-06-30T23:01:57.326Z,2.60
2023-06-30T23:04:25.711Z,2.00
2023-06-30T23:06:53.992Z,1.75
2023-06-30T23:09:22.007Z,2.40
2023-06-30T23:11:50.616Z,2.60
2023-06-30T23:14:20.151Z,2.05
2023-06-30T23:16:50.420Z,1.38
2023-06-30T23:19:19.994Z,2.45
2023-06-30T23:21:48.170Z,1.58
2023-06-30T23:24:16.365Z,2.00
2023-06-30T23:26:46.267Z,1.50
2023-06-30T23:29:15.385Z,2.15
2023-06-30T23:31:46.320Z,2.08
2023-06-30T23:34:17.605Z,1.65
2023-06-30T23:36:47.030Z,1.85
2023-06-30T23:39:18.204Z,1.98
2023-06-30T23:41:48.373Z,2.78
2023-06-30T23:44:17.270Z,1.90
2023-06-30T23:46:45.384Z,1.95
2023-06-30T23:49:13.504Z,2.35
2023-06-30T23:51:41.571Z,2.00
2023-06-30T23:54:10.931Z,1.92
2023-06-30T23:56:39.265Z,2.35
2023-06-30T23:59:07.571Z,1.75
